Time;durP1;ratioP1;P1;durP2;ratioP2;P2;SDS_P1;SDS_P2;PMS_P1;PMS_P2;Temp;Humidity;BMP_temperature;BMP_pressure;BME280_temperature;BME280_humidity;BME280_pressure;Samples;Min_cycle;Max_cycle;Signal;HPM_P1;HPM_P2
2022/10/18 00:02:29;;;;;;;10.50;5.18;;;;;;;;;;5017913;28;20128;-78
2022/10/18 00:05:00;;;;;;;8.63;5.63;;;;;;;;;;5007428;28;20053;-78
2022/10/18 00:07:26;;;;;;;10.32;6.38;;;;;;;;;;5028118;28;20487;-78
2022/10/18 00:09:57;;;;;;;12.32;6.72;;;;;;;;;;5019283;28;20036;-78
2022/10/18 00:12:25;;;;;;;11.55;6.72;;;;;;;;;;5018981;28;20056;-78
2022/10/18 00:14:51;;;;;;;10.70;5.97;;;;;;;;;;5025844;28;20484;-78
2022/10/18 00:17:17;;;;;;;10.55;5.13;;;;;;;;;;5032916;28;20152;-78
2022/10/18 00:19:43;;;;;;;10.02;5.38;;;;;;;;;;5020241;28;20037;-78
2022/10/18 00:22:09;;;;;;;10.38;4.65;;;;;;;;;;5024736;28;20032;-78
2022/10/18 00:24:37;;;;;;;10.30;5.47;;;;;;;;;;5020731;28;20026;-78
2022/10/18 00:27:05;;;;;;;10.32;5.30;;;;;;;;;;5026895;28;20028;-78
2022/10/18 00:29:33;;;;;;;7.22;4.57;;;;;;;;;;5025459;28;20044;-78
2022/10/18 00:32:02;;;;;;;11.27;5.45;;;;;;;;;;5014728;28;20391;-78
2022/10/18 00:34:28;;;;;;;11.57;6.35;;;;;;;;;;5024191;28;20112;-78
2022/10/18 00:36:54;;;;;;;12.05;6.93;;;;;;;;;;5013017;28;20037;-79
2022/10/18 00:39:24;;;;;;;11.13;5.65;;;;;;;;;;5025276;28;20021;-79
2022/10/18 00:41:50;;;;;;;11.57;8.02;;;;;;;;;;5032199;28;20026;-79
2022/10/18 00:44:27;;;;;;;10.75;6.07;;;;;;;;;;5024724;28;20034;-79
2022/10/18 00:47:05;;;;;;;10.27;5.30;;;;;;;;;;5012677;28;20053;-79
2022/10/18 00:49:43;;;;;;;8.80;5.80;;;;;;;;;;5018068;28;20041;-79
2022/10/18 00:52:16;;;;;;;13.13;6.95;;;;;;;;;;5032816;28;20044;-79
2022/10/18 00:54:45;;;;;;;7.53;5.82;;;;;;;;;;5026950;28;20033;-79
2022/10/18 00:57:12;;;;;;;14.52;6.22;;;;;;;;;;5022101;28;20032;-78
2022/10/18 00:59:38;;;;;;;6.88;5.05;;;;;;;;;;4996911;28;20030;-78
2022/10/18 01:02:07;;;;;;;13.43;6.25;;;;;;;;;;5010823;28;20403;-78
2022/10/18 01:04:35;;;;;;;11.93;5.97;;;;;;;;;;5019313;28;20030;-79
2022/10/18 01:07:27;;;;;;;5.78;5.25;;;;;;;;;;5014399;28;20064;-79
2022/10/18 01:09:53;;;;;;;9.57;5.55;;;;;;;;;;5013181;28;20412;-78
2022/10/18 01:12:25;;;;;;;6.97;5.90;;;;;;;;;;5034868;28;20044;-79
2022/10/18 01:15:10;;;;;;;11.65;6.38;;;;;;;;;;5020798;28;20414;-79
2022/10/18 01:17:56;;;;;;;14.43;6.07;;;;;;;;;;5017604;28;20038;-78
2022/10/18 01:20:33;;;;;;;14.85;6.03;;;;;;;;;;5009016;28;20026;-78
2022/10/18 01:23:04;;;;;;;9.13;5.43;;;;;;;;;;5015030;28;20034;-78
2022/10/18 01:25:43;;;;;;;6.72;4.80;;;;;;;;;;5017185;28;20392;-78
2022/10/18 01:28:18;;;;;;;16.67;7.30;;;;;;;;;;5014867;28;20093;-78
2022/10/18 01:30:58;;;;;;;10.07;6.35;;;;;;;;;;5018625;28;20036;-78
2022/10/18 01:33:49;;;;;;;9.80;5.70;;;;;;;;;;5018151;28;20409;-78
2022/10/18 01:36:22;;;;;;;7.30;5.63;;;;;;;;;;5008689;28;20034;-78
2022/10/18 01:38:53;;;;;;;8.63;5.27;;;;;;;;;;5018462;28;20037;-78
2022/10/18 01:41:22;;;;;;;15.25;5.70;;;;;;;;;;5021042;28;20034;-78
2022/10/18 01:43:50;;;;;;;10.07;5.75;;;;;;;;;;5037955;28;20487;-78
2022/10/18 01:46:22;;;;;;;9.77;5.20;;;;;;;;;;5017008;28;20038;-78
2022/10/18 01:48:51;;;;;;;12.52;5.50;;;;;;;;;;5014892;28;20029;-78
2022/10/18 01:51:25;;;;;;;10.05;5.70;;;;;;;;;;5022682;28;20042;-78
2022/10/18 01:53:51;;;;;;;8.57;6.03;;;;;;;;;;5004874;28;20042;-79
2022/10/18 01:56:26;;;;;;;8.10;5.47;;;;;;;;;;5016117;28;20479;-79
2022/10/18 01:58:54;;;;;;;9.95;5.75;;;;;;;;;;5035538;28;20033;-78
2022/10/18 02:01:43;;;;;;;11.38;5.53;;;;;;;;;;5012264;28;20498;-78
2022/10/18 02:04:15;;;;;;;6.70;5.03;;;;;;;;;;5015359;28;20038;-79
2022/10/18 02:06:44;;;;;;;6.43;5.45;;;;;;;;;;5022444;28;20391;-78
2022/10/18 02:09:11;;;;;;;6.60;5.22;;;;;;;;;;5010534;28;20030;-79
2022/10/18 02:11:40;;;;;;;7.03;4.32;;;;;;;;;;5011343;28;20407;-79
2022/10/18 02:14:10;;;;;;;9.30;5.30;;;;;;;;;;5015517;28;20033;-79
2022/10/18 02:16:49;;;;;;;10.27;4.85;;;;;;;;;;5013489;28;20092;-78
2022/10/18 02:19:15;;;;;;;9.25;5.75;;;;;;;;;;5030964;28;20033;-79
2022/10/18 02:21:45;;;;;;;6.60;5.60;;;;;;;;;;4996966;28;20044;-78
2022/10/18 02:24:12;;;;;;;9.00;4.75;;;;;;;;;;5025467;28;20030;-78
2022/10/18 02:26:38;;;;;;;7.30;5.03;;;;;;;;;;5009813;28;20472;-78
2022/10/18 02:29:07;;;;;;;20.98;5.72;;;;;;;;;;5029527;28;20033;-78
2022/10/18 02:31:38;;;;;;;17.10;5.95;;;;;;;;;;5013282;28;20041;-78
2022/10/18 02:34:12;;;;;;;12.98;6.78;;;;;;;;;;5035339;28;20052;-78
2022/10/18 02:36:45;;;;;;;9.65;5.43;;;;;;;;;;5019445;28;20030;-78
2022/10/18 02:39:13;;;;;;;8.10;5.75;;;;;;;;;;5015466;28;20021;-78
2022/10/18 02:41:39;;;;;;;11.60;5.50;;;;;;;;;;5014391;28;20029;-79
2022/10/18 02:44:07;;;;;;;9.57;6.22;;;;;;;;;;5021486;28;20088;-79
2022/10/18 02:46:35;;;;;;;9.13;5.38;;;;;;;;;;5020062;28;20034;-78
2022/10/18 02:49:08;;;;;;;8.75;4.65;;;;;;;;;;5021238;28;20041;-79
2022/10/18 02:51:34;;;;;;;11.20;4.85;;;;;;;;;;5011940;28;20033;-78
2022/10/18 02:54:02;;;;;;;11.93;5.30;;;;;;;;;;5027179;28;20029;-78
2022/10/18 02:56:28;;;;;;;13.32;5.38;;;;;;;;;;5022105;28;20034;-78
2022/10/18 02:58:57;;;;;;;8.80;6.55;;;;;;;;;;5016792;28;20021;-78
2022/10/18 03:01:25;;;;;;;11.18;6.80;;;;;;;;;;5015617;28;20506;-78
2022/10/18 03:03:54;;;;;;;9.20;5.50;;;;;;;;;;5028116;28;20034;-79
2022/10/18 03:06:24;;;;;;;5.57;4.88;;;;;;;;;;5024502;28;20037;-78
2022/10/18 03:08:53;;;;;;;11.77;5.97;;;;;;;;;;5041376;28;20056;-78
2022/10/18 03:11:21;;;;;;;13.70;6.15;;;;;;;;;;5026564;28;20030;-78
2022/10/18 03:13:49;;;;;;;12.10;5.65;;;;;;;;;;5039083;28;20034;-78
2022/10/18 03:16:20;;;;;;;9.57;5.05;;;;;;;;;;5014883;28;20503;-78
2022/10/18 03:18:48;;;;;;;9.70;4.82;;;;;;;;;;5023004;28;20045;-78
2022/10/18 03:21:14;;;;;;;11.15;5.32;;;;;;;;;;5024719;28;20049;-78
2022/10/18 03:23:52;;;;;;;7.43;4.93;;;;;;;;;;5055544;28;20037;-78
2022/10/18 03:26:20;;;;;;;13.38;5.78;;;;;;;;;;5024468;28;20034;-78
2022/10/18 03:28:46;;;;;;;13.65;6.43;;;;;;;;;;5045700;28;20046;-78
2022/10/18 03:31:12;;;;;;;7.20;4.97;;;;;;;;;;5016632;28;20022;-78
2022/10/18 03:33:38;;;;;;;12.98;7.43;;;;;;;;;;5017896;28;20030;-78
2022/10/18 03:36:08;;;;;;;11.90;5.45;;;;;;;;;;5023544;28;20022;-79
2022/10/18 03:38:34;;;;;;;8.55;5.43;;;;;;;;;;5014123;28;20029;-78
2022/10/18 03:41:00;;;;;;;7.30;5.05;;;;;;;;;;5027947;28;20123;-79
2022/10/18 03:43:26;;;;;;;9.68;5.57;;;;;;;;;;5012800;28;20034;-78
2022/10/18 03:45:52;;;;;;;6.35;4.47;;;;;;;;;;5026478;28;20087;-79
2022/10/18 03:48:20;;;;;;;7.18;5.70;;;;;;;;;;5042307;28;20040;-79
2022/10/18 03:50:48;;;;;;;9.27;5.60;;;;;;;;;;5020298;28;20491;-79
2022/10/18 03:53:14;;;;;;;20.10;5.78;;;;;;;;;;5011173;28;20041;-79
2022/10/18 03:55:39;;;;;;;9.07;4.82;;;;;;;;;;5020807;28;20519;-79
2022/10/18 03:58:05;;;;;;;7.53;4.93;;;;;;;;;;5010205;28;20185;-79
2022/10/18 04:00:33;;;;;;;12.40;6.00;;;;;;;;;;5020898;28;20030;-79
2022/10/18 04:03:02;;;;;;;12.13;6.05;;;;;;;;;;5015702;28;20057;-79
2022/10/18 04:05:30;;;;;;;11.32;5.38;;;;;;;;;;5018669;28;20034;-79
2022/10/18 04:07:56;;;;;;;10.13;6.25;;;;;;;;;;5018562;28;20033;-78
2022/10/18 04:10:22;;;;;;;6.80;5.90;;;;;;;;;;5014089;28;20033;-81
2022/10/18 04:12:48;;;;;;;7.75;5.18;;;;;;;;;;5052161;28;20088;-81
2022/10/18 04:15:14;;;;;;;11.20;5.78;;;;;;;;;;5021320;28;20048;-80
2022/10/18 04:17:42;;;;;;;10.40;5.30;;;;;;;;;;5021186;28;20475;-80
2022/10/18 04:20:10;;;;;;;14.05;5.57;;;;;;;;;;5015049;28;20025;-80
2022/10/18 04:22:38;;;;;;;11.90;5.70;;;;;;;;;;5000105;28;20407;-80
2022/10/18 04:25:09;;;;;;;13.73;5.68;;;;;;;;;;5036824;28;20502;-80
2022/10/18 04:27:37;;;;;;;8.30;5.22;;;;;;;;;;5032517;28;20404;-79
2022/10/18 04:30:05;;;;;;;21.83;6.00;;;;;;;;;;5015280;28;20679;-79
2022/10/18 04:32:31;;;;;;;12.90;5.93;;;;;;;;;;5015625;28;20057;-79
2022/10/18 04:34:57;;;;;;;8.23;5.78;;;;;;;;;;5016446;28;20484;-79
2022/10/18 04:37:25;;;;;;;10.00;5.07;;;;;;;;;;5017958;28;20237;-80
2022/10/18 04:39:56;;;;;;;6.55;4.60;;;;;;;;;;5016881;28;20030;-80
2022/10/18 04:42:22;;;;;;;9.13;6.28;;;;;;;;;;5016215;28;20029;-80
2022/10/18 04:44:50;;;;;;;9.20;5.78;;;;;;;;;;5019991;28;20365;-79
2022/10/18 04:47:20;;;;;;;10.43;4.68;;;;;;;;;;5021837;28;20033;-80
2022/10/18 04:49:48;;;;;;;13.43;6.18;;;;;;;;;;5017042;28;20038;-80
2022/10/18 04:52:14;;;;;;;8.55;4.82;;;;;;;;;;5025165;28;20591;-80
2022/10/18 04:54:42;;;;;;;11.52;6.53;;;;;;;;;;5051442;28;20026;-80
2022/10/18 04:57:13;;;;;;;10.18;5.60;;;;;;;;;;5038259;28;20052;-80
2022/10/18 04:59:43;;;;;;;11.00;6.40;;;;;;;;;;5018672;28;20034;-80
2022/10/18 05:02:12;;;;;;;10.18;5.57;;;;;;;;;;5021372;28;20101;-80
2022/10/18 05:04:42;;;;;;;9.23;4.47;;;;;;;;;;5035552;28;20034;-80
2022/10/18 05:07:13;;;;;;;7.93;6.95;;;;;;;;;;5012762;28;20053;-80
2022/10/18 05:09:43;;;;;;;11.63;7.05;;;;;;;;;;5012248;28;20045;-80
2022/10/18 05:12:09;;;;;;;10.95;6.53;;;;;;;;;;5056033;28;20044;-81
2022/10/18 05:14:35;;;;;;;9.70;6.32;;;;;;;;;;5012084;28;20033;-80
2022/10/18 05:17:06;;;;;;;6.40;5.82;;;;;;;;;;5026198;28;20033;-81
2022/10/18 05:19:32;;;;;;;8.70;5.47;;;;;;;;;;5010773;28;20030;-81
2022/10/18 05:21:58;;;;;;;6.75;5.78;;;;;;;;;;5009980;28;20490;-81
2022/10/18 05:24:26;;;;;;;5.85;5.35;;;;;;;;;;5039186;28;20042;-81
2022/10/18 05:26:52;;;;;;;10.95;6.97;;;;;;;;;;5012074;28;20026;-81
2022/10/18 05:29:20;;;;;;;8.80;5.45;;;;;;;;;;5022584;28;20057;-81
2022/10/18 05:31:51;;;;;;;7.50;6.38;;;;;;;;;;5009883;28;20387;-80
2022/10/18 05:34:19;;;;;;;16.90;6.68;;;;;;;;;;5013014;28;20033;-80
2022/10/18 05:36:53;;;;;;;14.93;6.95;;;;;;;;;;5016464;28;20041;-80
2022/10/18 05:39:19;;;;;;;12.40;7.88;;;;;;;;;;5026090;28;20033;-80
2022/10/18 05:41:49;;;;;;;19.42;11.00;;;;;;;;;;5011251;28;20388;-80
2022/10/18 05:44:15;;;;;;;19.23;8.55;;;;;;;;;;5010085;28;20033;-80
2022/10/18 05:46:41;;;;;;;11.48;9.07;;;;;;;;;;5009180;28;20097;-80
2022/10/18 05:49:10;;;;;;;10.38;8.38;;;;;;;;;;5027395;22;20022;-74
2022/10/18 05:51:39;;;;;;;12.38;7.82;;;;;;;;;;5052315;28;20037;-74
2022/10/18 05:54:08;;;;;;;18.90;7.15;;;;;;;;;;5045661;28;20036;-75
2022/10/18 05:56:34;;;;;;;11.07;6.53;;;;;;;;;;5049997;28;20597;-75
2022/10/18 05:58:59;;;;;;;10.77;6.68;;;;;;;;;;5048769;28;20025;-75
2022/10/18 06:01:25;;;;;;;8.48;6.43;;;;;;;;;;5048401;28;20035;-75
2022/10/18 06:03:51;;;;;;;10.27;6.20;;;;;;;;;;5063226;28;20060;-75
2022/10/18 06:06:17;;;;;;;8.27;6.20;;;;;;;;;;5043749;28;20063;-75
2022/10/18 06:08:43;;;;;;;8.40;6.60;;;;;;;;;;5032698;28;20040;-76
2022/10/18 06:11:11;;;;;;;10.73;7.40;;;;;;;;;;5063952;28;20025;-74
2022/10/18 06:13:43;;;;;;;14.93;5.65;;;;;;;;;;5051805;28;20036;-75
2022/10/18 06:16:12;;;;;;;10.82;5.97;;;;;;;;;;5053074;28;20091;-76
2022/10/18 06:18:38;;;;;;;7.65;5.20;;;;;;;;;;5054318;28;20037;-76
2022/10/18 06:21:07;;;;;;;8.00;4.90;;;;;;;;;;5068589;28;20041;-75
2022/10/18 06:23:35;;;;;;;11.15;5.80;;;;;;;;;;5050758;28;20040;-75
2022/10/18 06:26:07;;;;;;;7.30;4.97;;;;;;;;;;5066744;28;20040;-75
2022/10/18 06:28:34;;;;;;;7.72;6.57;;;;;;;;;;5050894;28;20033;-74
2022/10/18 06:31:03;;;;;;;15.68;7.43;;;;;;;;;;5043128;28;20029;-75
2022/10/18 06:33:32;;;;;;;18.13;7.65;;;;;;;;;;5053351;28;20533;-75
2022/10/18 06:36:02;;;;;;;11.70;5.72;;;;;;;;;;5053596;28;20037;-75
2022/10/18 06:38:29;;;;;;;12.05;5.85;;;;;;;;;;5052878;28;20044;-76
2022/10/18 06:40:59;;;;;;;19.90;7.15;;;;;;;;;;5051172;28;20387;-76
2022/10/18 06:43:29;;;;;;;12.50;6.45;;;;;;;;;;5052186;28;20043;-75
2022/10/18 06:45:55;;;;;;;10.80;7.95;;;;;;;;;;5053659;28;20033;-75
2022/10/18 06:48:21;;;;;;;8.75;5.00;;;;;;;;;;5052388;28;20045;-75
2022/10/18 06:50:55;;;;;;;11.77;6.53;;;;;;;;;;5053919;28;20048;-74
2022/10/18 06:53:22;;;;;;;9.55;5.72;;;;;;;;;;5051189;28;20029;-74
2022/10/18 06:55:50;;;;;;;9.00;5.78;;;;;;;;;;5051524;28;20032;-75
2022/10/18 06:58:18;;;;;;;9.50;5.85;;;;;;;;;;5053061;28;20044;-75
2022/10/18 07:00:44;;;;;;;12.07;6.53;;;;;;;;;;5052500;28;20497;-75
2022/10/18 07:03:13;;;;;;;6.68;5.28;;;;;;;;;;5050462;28;20028;-75
2022/10/18 07:05:39;;;;;;;10.10;6.63;;;;;;;;;;5049664;28;20033;-75
2022/10/18 07:08:04;;;;;;;10.90;6.68;;;;;;;;;;5053359;28;20079;-75
2022/10/18 07:10:30;;;;;;;9.35;8.32;;;;;;;;;;5051275;28;20044;-75
2022/10/18 07:12:58;;;;;;;10.23;7.45;;;;;;;;;;5053487;28;20028;-75
2022/10/18 07:15:24;;;;;;;8.55;6.93;;;;;;;;;;5051923;28;20395;-75
2022/10/18 07:17:50;;;;;;;10.45;8.27;;;;;;;;;;5034313;28;20025;-76
2022/10/18 07:20:16;;;;;;;15.38;9.18;;;;;;;;;;5033443;28;20067;-76
2022/10/18 07:22:44;;;;;;;10.60;8.00;;;;;;;;;;5053230;28;20036;-75
2022/10/18 07:25:15;;;;;;;11.48;8.52;;;;;;;;;;5050657;28;20475;-76
2022/10/18 07:27:41;;;;;;;8.30;7.30;;;;;;;;;;5033445;28;20091;-75
2022/10/18 07:30:14;;;;;;;9.73;7.45;;;;;;;;;;5043817;28;20052;-75
2022/10/18 07:32:40;;;;;;;9.45;7.97;;;;;;;;;;5050907;28;20453;-76
2022/10/18 07:35:06;;;;;;;9.85;8.02;;;;;;;;;;5050777;28;20067;-75
2022/10/18 07:37:34;;;;;;;15.30;8.43;;;;;;;;;;5050918;28;20025;-75
2022/10/18 07:40:03;;;;;;;10.70;8.05;;;;;;;;;;5051242;28;20064;-75
2022/10/18 07:42:33;;;;;;;12.77;8.57;;;;;;;;;;5065526;28;20041;-75
2022/10/18 07:45:01;;;;;;;20.80;8.50;;;;;;;;;;5046145;28;20032;-74
2022/10/18 07:47:29;;;;;;;13.00;8.43;;;;;;;;;;5050937;28;20622;-75
2022/10/18 07:49:58;;;;;;;10.77;8.85;;;;;;;;;;5051949;28;20090;-75
2022/10/18 07:52:26;;;;;;;16.15;9.10;;;;;;;;;;5045924;28;20029;-75
2022/10/18 07:54:52;;;;;;;9.32;7.57;;;;;;;;;;5066446;28;20048;-75
2022/10/18 07:57:18;;;;;;;14.32;8.75;;;;;;;;;;5049721;28;20041;-75
2022/10/18 07:59:47;;;;;;;8.40;7.13;;;;;;;;;;5052527;28;20029;-75
2022/10/18 08:02:15;;;;;;;13.50;7.95;;;;;;;;;;5051752;28;20032;-74
2022/10/18 08:04:41;;;;;;;16.85;8.38;;;;;;;;;;5053003;28;20033;-74
2022/10/18 08:07:09;;;;;;;12.88;7.07;;;;;;;;;;5051997;28;20033;-76
2022/10/18 08:09:37;;;;;;;13.05;8.88;;;;;;;;;;5049928;28;20094;-75
2022/10/18 08:12:05;;;;;;;12.65;8.60;;;;;;;;;;5051449;28;20041;-74
2022/10/18 08:14:41;;;;;;;10.35;8.70;;;;;;;;;;5052578;28;20040;-75
2022/10/18 08:17:07;;;;;;;10.30;7.82;;;;;;;;;;5050366;28;20033;-75
2022/10/18 08:19:45;;;;;;;15.23;10.00;;;;;;;;;;5052307;28;20029;-75
2022/10/18 08:22:15;;;;;;;12.07;8.73;;;;;;;;;;5051474;28;20033;-75
2022/10/18 08:24:46;;;;;;;13.68;9.45;;;;;;;;;;5050951;28;20033;-76
2022/10/18 08:27:19;;;;;;;12.65;9.52;;;;;;;;;;5066345;28;20044;-75
2022/10/18 08:29:47;;;;;;;15.38;8.68;;;;;;;;;;5050470;28;20414;-75
2022/10/18 08:32:15;;;;;;;10.63;9.35;;;;;;;;;;5052325;28;20029;-75
2022/10/18 08:34:44;;;;;;;18.35;12.10;;;;;;;;;;5051094;28;20041;-76
2022/10/18 08:37:14;;;;;;;12.27;10.90;;;;;;;;;;5052223;28;20029;-75
2022/10/18 08:39:42;;;;;;;11.63;9.52;;;;;;;;;;5050464;28;20029;-76
2022/10/18 08:42:27;;;;;;;12.43;9.35;;;;;;;;;;5067497;28;20029;-75
2022/10/18 08:44:53;;;;;;;10.02;6.85;;;;;;;;;;5051064;28;20486;-75
2022/10/18 08:47:29;;;;;;;11.52;8.57;;;;;;;;;;5051852;28;20044;-75
2022/10/18 08:49:58;;;;;;;9.98;7.10;;;;;;;;;;5066128;28;20037;-76
2022/10/18 08:52:36;;;;;;;14.25;7.60;;;;;;;;;;5051989;28;20387;-75
2022/10/18 08:55:11;;;;;;;10.70;7.40;;;;;;;;;;5051796;28;20033;-76
2022/10/18 08:57:37;;;;;;;14.35;8.20;;;;;;;;;;5050975;28;20036;-75
2022/10/18 09:00:17;;;;;;;10.98;8.23;;;;;;;;;;5050541;28;20033;-74
2022/10/18 09:02:55;;;;;;;9.18;7.72;;;;;;;;;;5051731;28;20506;-75
2022/10/18 09:05:24;;;;;;;13.15;7.72;;;;;;;;;;5050784;28;20084;-74
2022/10/18 09:08:02;;;;;;;13.50;7.38;;;;;;;;;;5051843;28;20037;-75
2022/10/18 09:10:40;;;;;;;10.38;6.65;;;;;;;;;;5050782;28;20036;-74
2022/10/18 09:13:11;;;;;;;9.38;6.55;;;;;;;;;;5044853;28;20044;-74
2022/10/18 09:15:56;;;;;;;19.90;7.50;;;;;;;;;;5051359;28;20041;-74
2022/10/18 09:18:43;;;;;;;12.52;7.63;;;;;;;;;;5049376;28;20553;-77
2022/10/18 09:21:18;;;;;;;6.78;6.07;;;;;;;;;;5040778;28;20502;-74
2022/10/18 09:23:48;;;;;;;10.13;7.15;;;;;;;;;;5048348;28;20481;-75
2022/10/18 09:26:14;;;;;;;7.47;6.78;;;;;;;;;;5042868;28;20036;-75
2022/10/18 09:28:42;;;;;;;13.50;5.65;;;;;;;;;;5049737;28;20362;-75
2022/10/18 09:31:13;;;;;;;7.07;5.70;;;;;;;;;;5050040;28;20029;-75
2022/10/18 09:33:39;;;;;;;9.18;6.60;;;;;;;;;;5057530;28;20032;-75
2022/10/18 09:36:07;;;;;;;9.27;5.75;;;;;;;;;;5051437;28;20487;-75
2022/10/18 09:38:41;;;;;;;6.85;5.45;;;;;;;;;;5051221;28;20033;-75
2022/10/18 09:41:12;;;;;;;8.60;6.85;;;;;;;;;;5049138;28;20495;-75
2022/10/18 09:44:07;;;;;;;7.38;4.85;;;;;;;;;;5032605;28;20033;-75
2022/10/18 09:46:37;;;;;;;10.82;6.15;;;;;;;;;;5034134;28;20526;-75
2022/10/18 09:49:06;;;;;;;7.45;5.10;;;;;;;;;;5052482;28;20025;-75
2022/10/18 09:51:38;;;;;;;7.45;5.75;;;;;;;;;;5053520;28;20410;-75
2022/10/18 09:54:06;;;;;;;12.93;5.60;;;;;;;;;;5053329;28;20479;-75
2022/10/18 09:56:45;;;;;;;7.22;6.18;;;;;;;;;;5055080;28;20057;-75
2022/10/18 09:59:24;;;;;;;9.07;5.30;;;;;;;;;;5053402;28;20033;-75
2022/10/18 10:01:52;;;;;;;6.70;5.25;;;;;;;;;;5053215;28;20033;-75
2022/10/18 10:04:23;;;;;;;5.82;4.70;;;;;;;;;;5065987;28;20048;-75
2022/10/18 10:06:55;;;;;;;8.55;5.65;;;;;;;;;;5068793;28;20029;-75
2022/10/18 10:09:25;;;;;;;7.68;4.65;;;;;;;;;;5054671;28;20032;-75
2022/10/18 10:11:51;;;;;;;11.40;6.15;;;;;;;;;;5053778;28;20036;-75
2022/10/18 10:14:27;;;;;;;8.77;5.93;;;;;;;;;;5053975;28;20040;-75
2022/10/18 10:16:55;;;;;;;6.30;4.85;;;;;;;;;;5036909;28;20637;-75
2022/10/18 10:19:23;;;;;;;8.65;4.45;;;;;;;;;;5053587;28;20043;-75
2022/10/18 10:21:57;;;;;;;7.60;4.30;;;;;;;;;;5052655;28;20044;-75
2022/10/18 10:24:25;;;;;;;8.15;4.85;;;;;;;;;;5054198;28;20032;-75
2022/10/18 10:27:00;;;;;;;6.40;4.88;;;;;;;;;;5054502;28;20033;-74
2022/10/18 10:29:44;;;;;;;8.95;6.45;;;;;;;;;;5068077;28;20036;-76
2022/10/18 10:32:16;;;;;;;12.18;5.80;;;;;;;;;;5047321;28;20036;-75
2022/10/18 10:34:46;;;;;;;5.75;4.70;;;;;;;;;;5068004;28;20033;-75
2022/10/18 10:37:29;;;;;;;8.05;5.78;;;;;;;;;;5033156;28;20040;-75
2022/10/18 10:40:12;;;;;;;7.85;5.85;;;;;;;;;;5045972;28;20021;-74
2022/10/18 10:43:07;;;;;;;7.68;5.93;;;;;;;;;;5050913;28;20234;-74
2022/10/18 10:45:37;;;;;;;7.28;6.57;;;;;;;;;;5046295;28;20103;-75
2022/10/18 10:48:07;;;;;;;8.45;6.43;;;;;;;;;;5053376;28;20359;-75
2022/10/18 10:50:49;;;;;;;8.60;6.40;;;;;;;;;;5051718;28;20040;-74
2022/10/18 10:53:35;;;;;;;9.30;5.50;;;;;;;;;;5052835;28;20033;-75
2022/10/18 10:56:11;;;;;;;7.65;6.07;;;;;;;;;;5068881;28;20036;-74
2022/10/18 10:58:39;;;;;;;7.70;6.00;;;;;;;;;;5052852;28;20033;-75
2022/10/18 11:01:21;;;;;;;8.98;6.43;;;;;;;;;;5048291;28;20033;-75
2022/10/18 11:03:53;;;;;;;10.98;7.07;;;;;;;;;;5048205;28;20036;-75
2022/10/18 11:06:30;;;;;;;7.68;6.63;;;;;;;;;;5051306;28;20037;-75
2022/10/18 11:09:00;;;;;;;8.35;5.80;;;;;;;;;;5045654;28;20499;-75
2022/10/18 11:11:29;;;;;;;7.78;6.53;;;;;;;;;;5063229;28;20107;-75
2022/10/18 11:13:55;;;;;;;11.90;6.90;;;;;;;;;;5053332;28;20040;-75
2022/10/18 11:16:26;;;;;;;8.10;6.20;;;;;;;;;;5052460;28;20092;-76
2022/10/18 11:18:55;;;;;;;8.38;5.47;;;;;;;;;;5035206;28;20024;-75
2022/10/18 11:21:29;;;;;;;7.32;6.57;;;;;;;;;;5051340;28;20384;-76
2022/10/18 11:23:58;;;;;;;8.50;5.28;;;;;;;;;;5052756;28;20025;-75
2022/10/18 11:26:29;;;;;;;10.82;5.55;;;;;;;;;;5049222;28;20403;-76
2022/10/18 11:29:16;;;;;;;10.20;6.00;;;;;;;;;;5050886;28;20545;-75
2022/10/18 11:31:45;;;;;;;8.48;5.57;;;;;;;;;;5050639;28;20036;-75
2022/10/18 11:34:23;;;;;;;7.55;5.75;;;;;;;;;;5053471;28;20059;-74
2022/10/18 11:36:55;;;;;;;8.60;5.43;;;;;;;;;;5050513;28;20036;-75
2022/10/18 11:39:32;;;;;;;14.82;5.28;;;;;;;;;;5048051;28;20029;-75
2022/10/18 11:42:04;;;;;;;8.32;5.32;;;;;;;;;;5051927;28;20028;-75
2022/10/18 11:44:39;;;;;;;7.47;4.82;;;;;;;;;;5066111;28;20041;-75
2022/10/18 11:47:24;;;;;;;6.35;4.80;;;;;;;;;;5035558;28;20033;-75
2022/10/18 11:50:08;;;;;;;7.20;5.05;;;;;;;;;;5078387;22;20060;-81
2022/10/18 11:52:46;;;;;;;7.03;5.10;;;;;;;;;;5031115;28;20033;-80
2022/10/18 11:55:29;;;;;;;4.97;4.55;;;;;;;;;;5052669;28;20036;-81
2022/10/18 11:58:06;;;;;;;6.22;5.30;;;;;;;;;;5045859;28;20040;-80
2022/10/18 12:00:47;;;;;;;7.43;4.88;;;;;;;;;;5050719;28;20040;-80
2022/10/18 12:03:34;;;;;;;16.95;4.47;;;;;;;;;;5051707;28;20528;-80
2022/10/18 12:06:06;;;;;;;4.60;3.95;;;;;;;;;;5064365;28;20037;-79
2022/10/18 12:08:37;;;;;;;6.57;5.03;;;;;;;;;;5050516;28;20043;-80
2022/10/18 12:11:15;;;;;;;6.20;4.60;;;;;;;;;;5051164;28;20064;-80
2022/10/18 12:13:47;;;;;;;4.85;3.78;;;;;;;;;;5051799;28;20032;-79
2022/10/18 12:16:14;;;;;;;10.55;4.18;;;;;;;;;;5051485;28;20041;-79
2022/10/18 12:18:46;;;;;;;6.30;3.90;;;;;;;;;;5068295;28;20029;-81
2022/10/18 12:21:17;;;;;;;9.55;4.22;;;;;;;;;;5052448;28;20391;-81
2022/10/18 12:23:46;;;;;;;6.70;4.38;;;;;;;;;;5049854;28;20037;-81
2022/10/18 12:26:16;;;;;;;8.77;3.85;;;;;;;;;;5045725;28;20025;-81
2022/10/18 12:28:45;;;;;;;4.93;3.75;;;;;;;;;;5051560;28;20020;-79
2022/10/18 12:31:20;;;;;;;4.28;3.70;;;;;;;;;;5052097;28;20020;-80
2022/10/18 12:33:52;;;;;;;6.28;4.03;;;;;;;;;;5047036;28;20021;-80
2022/10/18 12:36:20;;;;;;;5.80;3.55;;;;;;;;;;5064203;28;20502;-80
2022/10/18 12:39:06;;;;;;;4.80;3.05;;;;;;;;;;5049065;28;20501;-80
2022/10/18 12:41:33;;;;;;;6.22;3.38;;;;;;;;;;5049325;28;20037;-80
2022/10/18 12:44:06;;;;;;;12.13;3.65;;;;;;;;;;5047277;28;20036;-80
2022/10/18 12:46:46;;;;;;;3.97;2.70;;;;;;;;;;5048267;28;20033;-81
2022/10/18 12:49:17;;;;;;;5.25;3.13;;;;;;;;;;5050316;28;20028;-82
2022/10/18 12:52:09;;;;;;;4.45;4.05;;;;;;;;;;5049312;28;20029;-81
2022/10/18 12:54:36;;;;;;;4.70;3.08;;;;;;;;;;5049622;28;20064;-80
2022/10/18 12:57:20;;;;;;;5.57;3.40;;;;;;;;;;5053432;28;20016;-81
2022/10/18 12:59:46;;;;;;;5.32;3.20;;;;;;;;;;5049512;28;20024;-79
2022/10/18 13:02:32;;;;;;;2.92;2.55;;;;;;;;;;5051104;28;20048;-80
2022/10/18 13:05:21;;;;;;;6.10;2.67;;;;;;;;;;5048661;28;20438;-80
2022/10/18 13:07:46;;;;;;;3.55;2.80;;;;;;;;;;5052144;28;20036;-80
2022/10/18 13:10:23;;;;;;;3.78;2.63;;;;;;;;;;5048668;28;20029;-80
2022/10/18 13:13:09;;;;;;;4.57;2.75;;;;;;;;;;5046410;28;20040;-79
2022/10/18 13:15:53;;;;;;;2.53;1.77;;;;;;;;;;5050550;28;20041;-81
2022/10/18 13:18:29;;;;;;;3.47;2.30;;;;;;;;;;5050035;28;20490;-80
2022/10/18 13:21:06;;;;;;;3.13;1.90;;;;;;;;;;5031662;28;20695;-79
2022/10/18 13:23:49;;;;;;;3.22;2.45;;;;;;;;;;5047605;28;20029;-79
2022/10/18 13:26:15;;;;;;;2.20;1.90;;;;;;;;;;5050413;28;20033;-79
2022/10/18 13:29:02;;;;;;;6.78;2.65;;;;;;;;;;5046417;28;20619;-79
2022/10/18 13:31:46;;;;;;;3.40;1.95;;;;;;;;;;5047183;28;20037;-80
2022/10/18 13:34:23;;;;;;;2.53;1.88;;;;;;;;;;5049904;28;20040;-80
2022/10/18 13:37:06;;;;;;;3.08;2.00;;;;;;;;;;5050239;28;20036;-80
2022/10/18 13:39:35;;;;;;;2.20;2.00;;;;;;;;;;5063512;28;20040;-80
2022/10/18 13:42:01;;;;;;;3.75;1.83;;;;;;;;;;5050169;28;20016;-79
2022/10/18 13:44:36;;;;;;;2.78;2.15;;;;;;;;;;5049798;28;20036;-80
2022/10/18 13:47:05;;;;;;;3.97;2.60;;;;;;;;;;5047627;28;20032;-80
2022/10/18 13:49:47;;;;;;;3.05;2.30;;;;;;;;;;5063275;28;20048;-80
2022/10/18 13:52:15;;;;;;;3.38;1.92;;;;;;;;;;5047830;28;20039;-80
2022/10/18 13:54:45;;;;;;;4.03;2.10;;;;;;;;;;5051224;28;20033;-80
2022/10/18 13:57:23;;;;;;;6.03;2.15;;;;;;;;;;5050047;28;20025;-80
2022/10/18 13:59:57;;;;;;;2.95;2.17;;;;;;;;;;5052108;28;20501;-80
2022/10/18 14:02:40;;;;;;;2.28;2.08;;;;;;;;;;5051452;28;20032;-80
2022/10/18 14:05:27;;;;;;;3.83;2.90;;;;;;;;;;5051052;28;20040;-80
2022/10/18 14:08:01;;;;;;;3.70;3.30;;;;;;;;;;5050161;28;20055;-80
2022/10/18 14:10:47;;;;;;;1.83;1.50;;;;;;;;;;5048895;28;20048;-80
2022/10/18 14:13:18;;;;;;;4.00;2.35;;;;;;;;;;5035187;28;20510;-80
2022/10/18 14:15:50;;;;;;;3.47;2.38;;;;;;;;;;5051118;28;20048;-80
2022/10/18 14:18:21;;;;;;;8.68;3.38;;;;;;;;;;5049721;28;20037;-80
2022/10/18 14:20:51;;;;;;;4.10;2.53;;;;;;;;;;5050436;28;20030;-80
2022/10/18 14:23:23;;;;;;;3.30;1.98;;;;;;;;;;5049395;28;20037;-80
2022/10/18 14:25:52;;;;;;;6.72;2.70;;;;;;;;;;5050804;28;20041;-80
2022/10/18 14:28:21;;;;;;;3.30;2.38;;;;;;;;;;5049768;28;20041;-80
2022/10/18 14:30:56;;;;;;;4.80;2.55;;;;;;;;;;5051234;28;20047;-80
2022/10/18 14:33:26;;;;;;;3.45;2.40;;;;;;;;;;5051035;28;20033;-80
2022/10/18 14:36:01;;;;;;;5.45;3.33;;;;;;;;;;5053873;28;20038;-80
2022/10/18 14:38:29;;;;;;;5.97;3.15;;;;;;;;;;5054710;28;20033;-80
2022/10/18 14:41:10;;;;;;;3.13;1.85;;;;;;;;;;5052961;28;20439;-80
2022/10/18 14:43:38;;;;;;;5.32;2.03;;;;;;;;;;5054237;28;20040;-79
2022/10/18 14:46:09;;;;;;;5.15;2.83;;;;;;;;;;5053228;28;20041;-79
2022/10/18 14:48:37;;;;;;;11.52;3.22;;;;;;;;;;5052969;28;20418;-79
2022/10/18 14:51:08;;;;;;;3.33;2.13;;;;;;;;;;5053524;28;20037;-79
2022/10/18 14:53:40;;;;;;;5.82;3.70;;;;;;;;;;5053197;28;20029;-79
2022/10/18 14:56:18;;;;;;;3.42;2.80;;;;;;;;;;5054126;28;20044;-79
2022/10/18 14:58:44;;;;;;;3.15;2.30;;;;;;;;;;5049721;28;20033;-79
2022/10/18 15:01:22;;;;;;;4.35;2.80;;;;;;;;;;5040328;28;20395;-79
2022/10/18 15:03:54;;;;;;;6.00;2.75;;;;;;;;;;5053856;28;20025;-79